createdAt,value
2018-06-03T00:00:35.851Z,18.84
2018-06-03T00:01:35.877Z,18.84
2018-06-03T00:02:35.704Z,18.84
2018-06-03T00:05:17.753Z,18.78
2018-06-03T00:06:17.783Z,18.74
2018-06-03T00:07:17.599Z,18.72
2018-06-03T00:08:17.630Z,18.72
2018-06-03T00:09:17.433Z,18.71
2018-06-03T00:11:59.749Z,18.72
2018-06-03T00:12:59.733Z,18.69
2018-06-03T00:13:59.599Z,18.69
2018-06-03T00:14:59.622Z,18.60
2018-06-03T00:15:59.432Z,18.59
2018-06-03T00:16:59.434Z,18.60
2018-06-03T00:17:59.298Z,18.69
2018-06-03T00:20:41.266Z,18.49
2018-06-03T00:21:41.235Z,18.56
2018-06-03T00:22:41.100Z,18.51
2018-06-03T00:23:41.068Z,18.51
2018-06-03T00:24:40.946Z,18.47
2018-06-03T00:25:40.955Z,18.49
2018-06-03T00:26:40.784Z,18.44
2018-06-03T00:29:22.789Z,18.35
2018-06-03T00:32:04.757Z,18.31
2018-06-03T00:34:46.770Z,18.25
2018-06-03T00:35:46.756Z,18.20
2018-06-03T00:36:46.646Z,18.19
2018-06-03T00:37:46.553Z,18.28
2018-06-03T00:38:46.457Z,18.20
2018-06-03T00:39:46.495Z,18.26
2018-06-03T00:40:46.282Z,18.25
2018-06-03T00:41:46.273Z,18.29
2018-06-03T00:42:46.129Z,18.19
2018-06-03T00:43:46.212Z,18.21
2018-06-03T00:44:45.971Z,18.17
2018-06-03T00:45:45.987Z,18.10
2018-06-03T00:46:45.813Z,18.07
2018-06-03T00:47:45.806Z,18.09
2018-06-03T00:48:45.689Z,17.96
2018-06-03T00:49:45.626Z,17.87
2018-06-03T00:50:45.499Z,17.95
2018-06-03T00:51:45.555Z,17.91
2018-06-03T00:52:45.356Z,17.98
2018-06-03T00:53:45.368Z,17.84
2018-06-03T00:54:45.197Z,17.81
2018-06-03T00:55:45.240Z,17.71
2018-06-03T00:56:45.043Z,17.77
2018-06-03T00:57:45.045Z,17.68
2018-06-03T00:58:44.899Z,17.80
2018-06-03T00:59:44.863Z,17.71
2018-06-03T01:00:44.721Z,17.68
2018-06-03T01:01:44.767Z,17.71
2018-06-03T01:02:44.564Z,17.70
2018-06-03T01:03:44.572Z,17.73
2018-06-03T01:04:44.441Z,17.68
2018-06-03T01:05:44.386Z,17.73
2018-06-03T01:06:44.256Z,17.79
2018-06-03T01:09:26.300Z,17.89
2018-06-03T01:10:27.248Z,17.86
2018-06-03T01:11:26.111Z,17.87
2018-06-03T01:12:26.096Z,17.94
2018-06-03T01:13:25.948Z,17.99
2018-06-03T01:14:25.913Z,17.96
2018-06-03T01:15:25.815Z,18.02
2018-06-03T01:16:25.819Z,18.02
2018-06-03T01:17:25.635Z,18.13
2018-06-03T01:18:25.628Z,18.09
2018-06-03T01:19:25.496Z,18.14
2018-06-03T01:20:25.477Z,18.25
2018-06-03T01:21:25.330Z,18.28
2018-06-03T01:22:25.345Z,18.32
2018-06-03T01:23:25.171Z,18.28
2018-06-03T01:24:25.162Z,18.28
2018-06-03T01:25:25.008Z,18.26
2018-06-03T01:26:25.011Z,18.32
2018-06-03T01:27:24.858Z,18.25
2018-06-03T01:30:06.797Z,18.31
2018-06-03T01:31:06.811Z,18.31
2018-06-03T01:32:06.611Z,18.34
2018-06-03T01:33:06.579Z,18.29
2018-06-03T01:34:06.464Z,18.31
2018-06-03T01:35:06.493Z,18.23
2018-06-03T01:36:06.409Z,18.23
2018-06-03T01:38:48.280Z,18.20
2018-06-03T01:39:48.296Z,18.14
2018-06-03T01:40:48.117Z,18.11
2018-06-03T01:41:48.149Z,18.04
2018-06-03T01:42:47.962Z,18.13
2018-06-03T01:45:19.854Z,18.02
2018-06-03T01:45:20.362Z,17.96
2018-06-03T01:46:20.425Z,17.87
2018-06-03T01:47:20.203Z,17.91
2018-06-03T01:48:20.202Z,17.99
2018-06-03T01:49:20.061Z,17.89
2018-06-03T01:50:20.008Z,17.96
2018-06-03T01:51:19.891Z,17.98
2018-06-03T01:52:19.958Z,18.02
2018-06-03T01:53:19.741Z,18.04
2018-06-03T01:56:01.783Z,17.98
2018-06-03T01:57:01.753Z,17.99
2018-06-03T01:58:01.624Z,17.84
2018-06-03T01:59:01.658Z,17.83
2018-06-03T02:00:01.478Z,17.79
2018-06-03T02:01:01.399Z,17.74
2018-06-03T02:02:01.340Z,17.74
2018-06-03T02:03:01.373Z,17.86
2018-06-03T02:04:01.147Z,17.63
2018-06-03T02:05:01.164Z,17.68
2018-06-03T02:06:00.994Z,17.71
2018-06-03T02:07:00.999Z,17.63
2018-06-03T02:08:00.834Z,17.62
2018-06-03T02:09:00.807Z,17.57
2018-06-03T02:10:00.677Z,17.51
2018-06-03T02:11:00.684Z,17.49
2018-06-03T02:12:00.642Z,17.46
2018-06-03T02:13:00.525Z,17.45
2018-06-03T02:14:00.371Z,17.45
2018-06-03T02:15:21.859Z,17.42
2018-06-03T02:16:00.207Z,17.33
2018-06-03T02:17:03.524Z,17.27
2018-06-03T02:18:00.047Z,17.35
2018-06-03T02:19:00.028Z,17.32
2018-06-03T02:19:59.906Z,17.33
2018-06-03T02:20:59.931Z,17.38
2018-06-03T02:21:59.738Z,17.30
2018-06-03T02:22:59.787Z,17.28
2018-06-03T02:23:59.583Z,17.43
2018-06-03T02:24:59.586Z,17.38
2018-06-03T02:25:59.423Z,17.47
2018-06-03T02:28:41.288Z,17.39
2018-06-03T02:29:41.285Z,17.40
2018-06-03T02:30:41.129Z,17.47
2018-06-03T02:31:41.175Z,17.43
2018-06-03T02:32:40.979Z,17.40
2018-06-03T02:33:40.976Z,17.49
2018-06-03T02:34:40.839Z,17.39
2018-06-03T02:35:40.789Z,17.35
2018-06-03T02:36:40.668Z,17.36
2018-06-03T02:37:40.737Z,17.32
2018-06-03T02:38:40.527Z,17.28
2018-06-03T02:39:40.498Z,17.30
2018-06-03T02:40:40.348Z,17.40
2018-06-03T02:41:40.324Z,17.33
2018-06-03T02:42:40.198Z,17.25
2018-06-03T02:43:41.281Z,17.30
2018-06-03T02:44:40.032Z,17.17
2018-06-03T02:47:22.305Z,17.21
2018-06-03T02:48:24.209Z,17.12
2018-06-03T02:49:22.155Z,17.18
2018-06-03T02:50:24.348Z,17.17
2018-06-03T02:51:21.994Z,17.15
2018-06-03T02:54:07.800Z,17.17
2018-06-03T02:55:08.893Z,17.17
2018-06-03T02:56:07.641Z,17.17
2018-06-03T02:58:49.816Z,17.22
2018-06-03T02:59:49.750Z,17.15
2018-06-03T03:00:49.659Z,17.12
2018-06-03T03:01:49.657Z,17.09
2018-06-03T03:02:49.480Z,17.12
2018-06-03T03:03:49.500Z,17.09
2018-06-03T03:04:49.326Z,17.10
2018-06-03T03:05:49.279Z,17.06
2018-06-03T03:06:49.169Z,17.17
2018-06-03T03:09:31.318Z,17.02
2018-06-03T03:10:31.323Z,17.07
2018-06-03T03:11:31.134Z,17.15
2018-06-03T03:12:31.101Z,17.07
2018-06-03T03:13:31.007Z,17.09
2018-06-03T03:14:31.002Z,17.07
2018-06-03T03:15:30.818Z,17.09
2018-06-03T03:16:30.842Z,17.12
2018-06-03T03:17:30.668Z,17.02
2018-06-03T03:18:30.662Z,17.06
2018-06-03T03:19:30.516Z,17.05
2018-06-03T03:20:30.541Z,17.02
2018-06-03T03:21:30.352Z,17.00
2018-06-03T03:24:12.334Z,16.85
2018-06-03T03:26:54.297Z,16.87
2018-06-03T03:29:36.424Z,16.84
2018-06-03T03:30:36.332Z,16.78
2018-06-03T03:31:36.162Z,16.85
2018-06-03T03:32:36.143Z,16.88
2018-06-03T03:33:39.454Z,16.88
2018-06-03T03:36:20.939Z,16.81
2018-06-03T03:37:17.844Z,16.75
2018-06-03T03:38:17.648Z,16.84
2018-06-03T03:39:17.662Z,16.81
2018-06-03T03:40:17.492Z,16.84
2018-06-03T03:41:17.490Z,16.80
2018-06-03T03:42:17.329Z,16.84
2018-06-03T03:43:17.382Z,16.88
2018-06-03T03:44:20.443Z,16.77
2018-06-03T03:45:28.884Z,16.77
2018-06-03T03:46:17.015Z,16.84
2018-06-03T03:47:16.990Z,16.84
2018-06-03T03:48:16.860Z,16.80
2018-06-03T03:49:16.841Z,16.78
2018-06-03T03:50:16.698Z,16.77
2018-06-03T03:51:17.780Z,16.77
2018-06-03T03:52:16.541Z,16.75
2018-06-03T03:53:16.519Z,16.81
2018-06-03T03:54:16.415Z,16.77
2018-06-03T03:55:16.439Z,16.78
2018-06-03T03:56:16.234Z,16.75
2018-06-03T03:57:16.280Z,16.75
2018-06-03T03:58:16.081Z,16.75
2018-06-03T03:59:16.047Z,16.80
2018-06-03T04:00:15.920Z,16.82
2018-06-03T04:01:15.956Z,16.81
2018-06-03T04:02:15.803Z,16.88
2018-06-03T04:03:15.775Z,16.92
2018-06-03T04:04:15.598Z,16.91
2018-06-03T04:05:15.580Z,16.87
2018-06-03T04:06:15.447Z,17.00
2018-06-03T04:07:15.424Z,17.10
2018-06-03T04:08:15.287Z,17.06
2018-06-03T04:09:15.291Z,17.17
2018-06-03T04:10:15.145Z,17.17
2018-06-03T04:11:15.104Z,17.22
2018-06-03T04:12:18.452Z,17.22
2018-06-03T04:13:15.010Z,17.40
2018-06-03T04:14:14.809Z,17.32
2018-06-03T04:15:14.820Z,17.32
2018-06-03T04:16:14.657Z,17.30
2018-06-03T04:17:14.631Z,17.30
2018-06-03T04:18:14.531Z,17.36
2018-06-03T04:19:14.539Z,17.38
2018-06-03T04:20:14.337Z,17.42
2018-06-03T04:21:14.346Z,17.47
2018-06-03T04:22:14.190Z,17.47
2018-06-03T04:23:14.185Z,17.53
2018-06-03T04:24:14.030Z,17.47
2018-06-03T04:25:14.072Z,17.46
2018-06-03T04:26:13.875Z,17.49
2018-06-03T04:27:13.872Z,17.42
2018-06-03T04:28:13.730Z,17.42
2018-06-03T04:29:13.682Z,17.47
2018-06-03T04:30:13.569Z,17.38
2018-06-03T04:32:58.957Z,17.46
2018-06-03T04:33:55.805Z,17.45
2018-06-03T04:34:55.656Z,17.45
2018-06-03T04:35:55.709Z,17.40
2018-06-03T04:36:55.503Z,17.47
2018-06-03T04:37:55.551Z,17.54
2018-06-03T04:38:55.351Z,17.66
2018-06-03T04:41:37.325Z,17.66
2018-06-03T04:44:19.343Z,17.49
2018-06-03T04:45:19.322Z,17.51
2018-06-03T04:46:19.179Z,17.46
2018-06-03T04:47:19.133Z,17.45
2018-06-03T04:48:19.038Z,17.36
2018-06-03T04:49:19.041Z,17.38
2018-06-03T04:50:18.848Z,17.33
2018-06-03T04:51:18.850Z,17.32
2018-06-03T04:52:21.964Z,17.32
2018-06-03T04:53:18.665Z,17.33
2018-06-03T04:54:18.536Z,17.14
2018-06-03T04:57:00.860Z,17.36
2018-06-03T04:58:00.867Z,17.38
2018-06-03T04:59:00.670Z,17.36
2018-06-03T05:00:00.680Z,17.39
2018-06-03T05:01:00.514Z,17.45
2018-06-03T05:02:01.550Z,17.49
2018-06-03T05:03:00.378Z,17.66
2018-06-03T05:05:42.340Z,17.76
2018-06-03T05:08:24.353Z,17.76
2018-06-03T05:09:24.297Z,17.70
2018-06-03T05:10:24.182Z,17.70
2018-06-03T05:11:24.203Z,17.79
2018-06-03T05:12:24.022Z,17.71
2018-06-03T05:13:24.042Z,17.73
2018-06-03T05:14:23.861Z,17.84
2018-06-03T05:15:35.914Z,17.84
2018-06-03T05:16:23.740Z,17.91
2018-06-03T05:17:23.724Z,17.94
2018-06-03T05:18:23.585Z,17.91
2018-06-03T05:19:23.543Z,17.99
2018-06-03T05:20:23.397Z,18.10
2018-06-03T05:21:23.360Z,18.07
2018-06-03T05:22:23.230Z,18.05
2018-06-03T05:23:23.340Z,18.17
2018-06-03T05:24:23.077Z,18.26
2018-06-03T05:25:23.075Z,18.38
2018-06-03T05:26:22.932Z,18.41
2018-06-03T05:27:22.885Z,18.42
2018-06-03T05:28:22.784Z,18.42
2018-06-03T05:29:22.791Z,18.42
2018-06-03T05:30:22.601Z,18.56
2018-06-03T05:31:22.632Z,18.57
2018-06-03T05:32:22.448Z,18.53
2018-06-03T05:33:22.437Z,18.54
2018-06-03T05:34:22.291Z,18.50
2018-06-03T05:35:22.315Z,18.57
2018-06-03T05:36:22.138Z,18.66
2018-06-03T05:37:22.138Z,18.69
2018-06-03T05:38:22.011Z,18.66
2018-06-03T05:39:21.970Z,18.74
2018-06-03T05:40:21.832Z,18.72
2018-06-03T05:41:21.850Z,18.84
2018-06-03T05:42:21.668Z,19.01
2018-06-03T05:43:21.686Z,19.09
2018-06-03T05:44:21.541Z,19.23
2018-06-03T05:45:38.423Z,19.28
2018-06-03T05:46:21.363Z,19.38
2018-06-03T05:47:21.418Z,19.53
2018-06-03T05:48:24.598Z,19.70
2018-06-03T05:49:22.239Z,19.72
2018-06-03T05:50:21.060Z,19.80
2018-06-03T05:51:21.088Z,19.94
2018-06-03T05:52:20.893Z,19.92
2018-06-03T05:53:20.925Z,20.15
2018-06-03T05:54:24.142Z,20.08
2018-06-03T05:55:20.701Z,20.20
2018-06-03T05:56:20.583Z,20.41
2018-06-03T05:57:20.618Z,20.53
2018-06-03T05:58:20.432Z,20.42
2018-06-03T06:01:02.368Z,20.56
2018-06-03T06:02:02.319Z,20.61
2018-06-03T06:03:02.194Z,20.61
2018-06-03T06:04:02.155Z,20.72
2018-06-03T06:05:02.045Z,20.78
2018-06-03T06:07:44.353Z,20.64
2018-06-03T06:10:26.378Z,20.78
2018-06-03T06:11:26.344Z,20.87
2018-06-03T06:12:26.208Z,20.93
2018-06-03T06:13:26.150Z,21.03
2018-06-03T06:14:26.082Z,21.08
2018-06-03T06:15:26.063Z,21.06
2018-06-03T06:16:25.897Z,21.21
2018-06-03T06:17:25.866Z,21.26
2018-06-03T06:18:25.755Z,21.40
2018-06-03T06:19:25.821Z,21.53
2018-06-03T06:20:25.588Z,21.71
2018-06-03T06:21:25.594Z,21.77
2018-06-03T06:22:25.436Z,21.82
2018-06-03T06:23:25.394Z,21.64
2018-06-03T06:24:25.312Z,21.61
2018-06-03T06:25:25.302Z,21.73
2018-06-03T06:26:25.140Z,21.51
2018-06-03T06:27:25.202Z,21.27
2018-06-03T06:28:24.983Z,21.22
2018-06-03T06:29:25.051Z,21.27
2018-06-03T06:30:24.838Z,21.13
2018-06-03T06:33:06.872Z,21.49
2018-06-03T06:34:06.831Z,21.37
2018-06-03T06:35:06.718Z,21.53
2018-06-03T06:36:06.735Z,21.56
2018-06-03T06:37:06.570Z,21.68
2018-06-03T06:38:06.549Z,21.85
2018-06-03T06:39:06.440Z,21.77
2018-06-03T06:40:06.390Z,21.82
2018-06-03T06:41:06.251Z,21.94
2018-06-03T06:42:06.290Z,22.01
2018-06-03T06:43:06.133Z,22.05
2018-06-03T06:44:06.075Z,22.29
2018-06-03T06:45:05.964Z,22.31
2018-06-03T06:46:05.996Z,22.61
2018-06-03T06:47:05.795Z,22.79
2018-06-03T06:48:05.803Z,23.04
2018-06-03T06:49:05.643Z,23.39
2018-06-03T06:50:06.020Z,23.37
2018-06-03T06:51:05.507Z,23.52
2018-06-03T06:52:05.520Z,23.54
2018-06-03T06:53:05.353Z,23.54
2018-06-03T06:54:05.328Z,23.29
2018-06-03T06:55:05.241Z,23.19
2018-06-03T06:56:05.239Z,23.29
2018-06-03T06:57:05.048Z,23.21
2018-06-03T06:59:46.863Z,23.53
2018-06-03T07:00:48.916Z,23.56
2018-06-03T07:01:46.734Z,23.54
2018-06-03T07:02:46.760Z,23.79
2018-06-03T07:03:46.583Z,23.97
2018-06-03T07:04:46.565Z,24.00
2018-06-03T07:05:46.468Z,23.87
2018-06-03T07:06:46.489Z,23.67
2018-06-03T07:07:46.288Z,23.56
2018-06-03T07:08:46.282Z,23.60
2018-06-03T07:09:46.125Z,23.63
2018-06-03T07:10:46.182Z,23.25
2018-06-03T07:11:45.998Z,23.15
2018-06-03T07:12:47.967Z,22.86
2018-06-03T07:13:45.842Z,22.84
2018-06-03T07:14:45.809Z,22.29
2018-06-03T07:15:45.694Z,22.11
2018-06-03T07:16:46.706Z,22.15
2018-06-03T07:17:45.538Z,22.14
2018-06-03T07:18:45.533Z,22.11
2018-06-03T07:19:45.399Z,22.02
2018-06-03T07:20:45.542Z,22.12
2018-06-03T07:21:45.298Z,22.15
2018-06-03T07:22:45.664Z,22.30
2018-06-03T07:23:45.118Z,22.04
2018-06-03T07:24:45.876Z,22.04
2018-06-03T07:25:44.979Z,21.63
2018-06-03T07:26:45.016Z,21.66
2018-06-03T07:27:44.798Z,21.73
2018-06-03T07:30:26.896Z,21.85
2018-06-03T07:31:26.926Z,21.98
2018-06-03T07:32:26.742Z,22.02
2018-06-03T07:33:26.801Z,22.09
2018-06-03T07:34:26.584Z,22.09
2018-06-03T07:37:12.912Z,22.09
2018-06-03T07:38:12.909Z,22.05
2018-06-03T07:39:12.740Z,22.02
2018-06-03T07:41:54.912Z,21.90
2018-06-03T07:42:54.928Z,21.90
2018-06-03T07:43:54.735Z,21.82
2018-06-03T07:45:45.485Z,21.64
2018-06-03T07:45:54.628Z,21.73
2018-06-03T07:46:54.536Z,21.55
2018-06-03T07:49:36.394Z,21.56
2018-06-03T07:50:36.433Z,21.38
2018-06-03T07:51:36.242Z,21.26
2018-06-03T07:52:36.271Z,21.16
2018-06-03T07:53:36.107Z,21.22
2018-06-03T07:56:18.391Z,21.56
2018-06-03T07:57:19.445Z,21.71
2018-06-03T07:58:18.239Z,21.96
2018-06-03T07:59:18.256Z,22.11
2018-06-03T08:00:18.088Z,22.30
2018-06-03T08:03:00.479Z,22.88
2018-06-03T08:04:00.386Z,23.01
2018-06-03T08:05:00.238Z,23.16
2018-06-03T08:06:00.324Z,23.59
2018-06-03T08:07:00.115Z,23.64
2018-06-03T08:08:01.157Z,24.30
2018-06-03T08:08:59.954Z,24.60
2018-06-03T08:09:59.901Z,25.04
2018-06-03T08:10:59.798Z,25.83
2018-06-03T08:11:59.810Z,26.68
2018-06-03T08:12:59.727Z,27.13
2018-06-03T08:13:59.616Z,27.33
2018-06-03T08:14:59.494Z,27.77
2018-06-03T08:15:59.519Z,27.68
2018-06-03T08:16:59.346Z,26.93
2018-06-03T08:17:59.368Z,26.12
2018-06-03T08:18:59.217Z,25.97
2018-06-03T08:19:59.251Z,25.61
2018-06-03T08:20:59.065Z,25.46
2018-06-03T08:21:59.053Z,24.93
2018-06-03T08:22:58.929Z,24.52
2018-06-03T08:23:59.001Z,24.44
2018-06-03T08:24:58.784Z,24.59
2018-06-03T08:25:58.771Z,24.53
2018-06-03T08:26:58.639Z,24.39
2018-06-03T08:29:40.927Z,24.80
2018-06-03T08:32:22.916Z,25.04
2018-06-03T08:33:22.928Z,24.89
2018-06-03T08:34:22.764Z,24.59
2018-06-03T08:35:22.784Z,24.56
2018-06-03T08:36:22.620Z,24.83
2018-06-03T08:37:22.592Z,24.67
2018-06-03T08:38:22.496Z,23.99
2018-06-03T08:39:22.518Z,23.54
2018-06-03T08:40:22.331Z,23.42
2018-06-03T08:41:22.337Z,23.67
2018-06-03T08:42:22.186Z,23.87
2018-06-03T08:43:23.177Z,23.87
2018-06-03T08:44:22.052Z,23.92
2018-06-03T08:45:22.040Z,23.75
2018-06-03T08:46:21.915Z,23.75
2018-06-03T08:47:21.946Z,23.84
2018-06-03T08:48:21.779Z,23.75
2018-06-03T08:49:21.751Z,23.92
2018-06-03T08:50:21.604Z,23.87
2018-06-03T08:51:21.567Z,23.60
2018-06-03T08:52:21.464Z,23.49
2018-06-03T08:53:21.522Z,23.26
2018-06-03T08:54:21.326Z,23.07
2018-06-03T08:55:21.282Z,22.75
2018-06-03T08:56:21.180Z,22.69
2018-06-03T08:57:21.196Z,22.54
2018-06-03T08:58:21.050Z,22.48
2018-06-03T08:59:21.044Z,22.46
2018-06-03T09:00:20.873Z,22.60
2018-06-03T09:01:20.919Z,22.59
2018-06-03T09:02:20.725Z,22.39
2018-06-03T09:03:20.750Z,22.30
2018-06-03T09:04:20.588Z,22.21
2018-06-03T09:05:20.678Z,22.24
2018-06-03T09:06:20.444Z,22.27
2018-06-03T09:07:20.449Z,22.15
2018-06-03T09:08:20.403Z,22.12
2018-06-03T09:09:20.294Z,22.08
2018-06-03T09:10:20.153Z,21.99
2018-06-03T09:13:02.469Z,22.12
2018-06-03T09:14:03.427Z,22.12
2018-06-03T09:15:02.280Z,22.11
2018-06-03T09:16:02.270Z,22.06
2018-06-03T09:17:02.123Z,22.09
2018-06-03T09:18:02.081Z,22.06
2018-06-03T09:19:02.119Z,22.05
2018-06-03T09:20:02.010Z,22.06
2018-06-03T09:21:01.817Z,22.20
2018-06-03T09:23:43.919Z,22.27
2018-06-03T09:24:43.953Z,22.17
2018-06-03T09:25:43.790Z,22.19
2018-06-03T09:26:43.804Z,22.20
2018-06-03T09:27:43.619Z,22.33
2018-06-03T09:28:43.613Z,22.27
2018-06-03T09:29:43.542Z,22.41
2018-06-03T09:32:25.755Z,22.30
2018-06-03T09:33:25.483Z,22.31
2018-06-03T09:34:25.440Z,22.33
2018-06-03T09:35:25.481Z,22.27
2018-06-03T09:36:25.164Z,22.36
2018-06-03T09:39:07.431Z,22.38
2018-06-03T09:40:07.574Z,22.45
2018-06-03T09:41:07.278Z,22.48
2018-06-03T09:42:07.367Z,22.41
2018-06-03T09:43:07.193Z,22.27
2018-06-03T09:44:07.177Z,22.42
2018-06-03T09:45:06.993Z,22.42
2018-06-03T09:46:06.973Z,22.46
2018-06-03T09:47:06.823Z,22.48
2018-06-03T09:48:06.827Z,22.54
2018-06-03T09:49:06.669Z,22.59
2018-06-03T09:50:06.739Z,22.63
2018-06-03T09:51:06.525Z,22.66
2018-06-03T09:52:06.514Z,22.72
2018-06-03T09:53:06.400Z,22.75
2018-06-03T09:55:48.481Z,22.97
2018-06-03T09:56:48.413Z,22.94
2018-06-03T09:57:48.295Z,23.06
2018-06-03T09:58:48.324Z,23.11
2018-06-03T09:59:48.141Z,23.06
2018-06-03T10:00:49.195Z,23.03
2018-06-03T10:01:47.996Z,23.03
2018-06-03T10:02:47.944Z,23.14
2018-06-03T10:03:47.851Z,23.18
2018-06-03T10:06:29.960Z,23.32
2018-06-03T10:07:29.948Z,23.39
2018-06-03T10:08:29.791Z,23.56
2018-06-03T10:11:11.999Z,23.59
2018-06-03T10:12:11.972Z,23.52
2018-06-03T10:13:11.801Z,23.37
2018-06-03T10:14:11.782Z,23.53
2018-06-03T10:15:11.634Z,23.44
2018-06-03T10:16:11.732Z,23.47
2018-06-03T10:17:11.534Z,23.39
2018-06-03T10:18:11.484Z,23.64
2018-06-03T10:19:11.347Z,23.77
2018-06-03T10:21:53.464Z,24.02
2018-06-03T10:24:39.442Z,23.97
2018-06-03T10:25:39.486Z,24.09
2018-06-03T10:26:39.334Z,24.33
2018-06-03T10:27:39.304Z,24.48
2018-06-03T10:28:39.157Z,24.67
2018-06-03T10:29:39.116Z,24.87
2018-06-03T10:30:39.003Z,25.05
2018-06-03T10:31:39.046Z,25.27
2018-06-03T10:32:38.937Z,25.35
2018-06-03T10:33:38.870Z,25.53
2018-06-03T10:34:38.712Z,25.64
2018-06-03T10:35:38.742Z,25.63
2018-06-03T10:36:38.560Z,25.59
2018-06-03T10:37:38.583Z,25.78
2018-06-03T10:38:38.410Z,26.08
2018-06-03T10:39:38.461Z,26.46
2018-06-03T10:40:38.253Z,26.32
2018-06-03T10:41:38.271Z,26.36
2018-06-03T10:42:38.153Z,26.73
2018-06-03T10:45:19.950Z,26.88
2018-06-03T10:46:19.987Z,26.51
2018-06-03T10:47:19.817Z,26.76
2018-06-03T10:48:19.807Z,26.73
2018-06-03T10:49:19.672Z,26.97
2018-06-03T10:50:19.696Z,26.94
2018-06-03T10:51:19.557Z,26.49
2018-06-03T10:52:19.570Z,26.56
2018-06-03T10:53:19.674Z,26.59
2018-06-03T10:54:19.408Z,26.57
2018-06-03T10:55:19.240Z,26.41
2018-06-03T10:58:01.491Z,27.59
2018-06-03T10:59:01.409Z,27.95
2018-06-03T11:00:01.320Z,27.95
2018-06-03T11:01:01.350Z,28.38
2018-06-03T11:02:01.212Z,28.51
2018-06-03T11:03:01.185Z,28.54
2018-06-03T11:04:01.159Z,28.54
2018-06-03T11:05:01.043Z,28.57
2018-06-03T11:06:00.965Z,28.70
2018-06-03T11:07:01.071Z,28.43
2018-06-03T11:08:00.773Z,27.88
2018-06-03T11:09:02.251Z,27.96
2018-06-03T11:10:00.637Z,28.36
2018-06-03T11:11:00.623Z,28.05
2018-06-03T11:12:00.536Z,28.38
2018-06-03T11:13:00.474Z,29.17
2018-06-03T11:14:00.385Z,29.70
2018-06-03T11:15:02.756Z,30.32
2018-06-03T11:16:03.085Z,30.49
2018-06-03T11:18:42.492Z,27.84
2018-06-03T11:19:42.529Z,27.66
2018-06-03T11:20:42.344Z,27.86
2018-06-03T11:23:24.472Z,29.02
2018-06-03T11:24:24.421Z,29.20
2018-06-03T11:25:24.328Z,29.57
2018-06-03T11:26:24.334Z,29.63
2018-06-03T11:27:24.222Z,28.91
2018-06-03T11:28:24.246Z,29.03
2018-06-03T11:29:24.093Z,29.42
2018-06-03T11:32:05.964Z,29.76
2018-06-03T11:33:05.918Z,29.30
2018-06-03T11:34:05.854Z,28.69
2018-06-03T11:36:47.999Z,27.59
2018-06-03T11:37:47.928Z,27.21
2018-06-03T11:38:47.899Z,27.01
2018-06-03T11:39:47.912Z,26.81
2018-06-03T11:40:47.707Z,26.57
2018-06-03T11:41:47.651Z,26.41
2018-06-03T11:42:47.574Z,26.06
2018-06-03T11:45:29.549Z,26.06
2018-06-03T11:46:29.488Z,25.75
2018-06-03T11:47:29.341Z,25.72
2018-06-03T11:50:11.576Z,25.20
2018-06-03T11:51:11.848Z,25.27
2018-06-03T11:52:11.381Z,25.14
2018-06-03T11:53:11.289Z,25.20
2018-06-03T11:54:11.225Z,24.98
2018-06-03T11:55:11.554Z,24.83
2018-06-03T11:56:11.085Z,24.79
2018-06-03T11:58:52.985Z,24.89
2018-06-03T11:59:53.001Z,24.84
2018-06-03T12:00:52.839Z,24.83
2018-06-03T12:01:52.818Z,24.79
2018-06-03T12:02:52.711Z,24.66
2018-06-03T12:03:52.647Z,24.80
2018-06-03T12:04:52.574Z,24.94
2018-06-03T12:07:34.487Z,25.30
2018-06-03T12:08:34.430Z,25.31
2018-06-03T12:09:34.339Z,25.45
2018-06-03T12:10:34.323Z,25.53
2018-06-03T12:11:34.190Z,25.42
2018-06-03T12:12:34.127Z,25.60
2018-06-03T12:13:34.055Z,25.74
2018-06-03T12:14:34.006Z,25.74
2018-06-03T12:15:33.972Z,25.89
2018-06-03T12:16:33.835Z,25.63
2018-06-03T12:17:33.761Z,25.76
2018-06-03T12:18:33.705Z,25.93
2018-06-03T12:19:33.624Z,25.76
2018-06-03T12:20:33.555Z,25.71
2018-06-03T12:21:33.508Z,25.85
2018-06-03T12:22:33.411Z,26.04
2018-06-03T12:23:33.337Z,25.89
2018-06-03T12:24:33.269Z,25.76
2018-06-03T12:25:33.185Z,25.67
2018-06-03T12:26:33.132Z,25.49
2018-06-03T12:27:33.041Z,25.49
2018-06-03T12:30:15.032Z,25.34
2018-06-03T12:31:15.943Z,25.34
2018-06-03T12:32:14.954Z,25.38
2018-06-03T12:33:14.805Z,25.46
2018-06-03T12:34:14.758Z,25.49
2018-06-03T12:35:14.627Z,25.57
2018-06-03T12:36:14.615Z,25.79
2018-06-03T12:37:14.500Z,25.75
2018-06-03T12:38:14.418Z,25.64
2018-06-03T12:39:14.347Z,25.85
2018-06-03T12:40:14.265Z,25.85
2018-06-03T12:41:14.226Z,25.96
2018-06-03T12:42:14.122Z,26.16
2018-06-03T12:44:56.013Z,25.97
2018-06-03T12:45:55.946Z,25.90
2018-06-03T12:46:55.879Z,26.11
2018-06-03T12:47:55.783Z,25.98
2018-06-03T12:48:55.722Z,25.78
2018-06-03T12:49:55.638Z,25.69
2018-06-03T12:50:55.573Z,25.63
2018-06-03T12:51:56.520Z,25.72
2018-06-03T12:52:55.433Z,25.91
2018-06-03T12:53:55.358Z,25.86
2018-06-03T12:54:55.268Z,25.69
2018-06-03T12:55:55.216Z,25.79
2018-06-03T12:56:55.151Z,25.97
2018-06-03T12:57:55.070Z,26.17
2018-06-03T12:58:54.999Z,26.28
2018-06-03T12:59:54.918Z,26.19
2018-06-03T13:00:54.841Z,26.44
2018-06-03T13:01:55.798Z,26.42
2018-06-03T13:02:54.693Z,26.39
2018-06-03T13:03:54.628Z,26.42
2018-06-03T13:04:54.544Z,26.38
2018-06-03T13:05:54.489Z,26.09
2018-06-03T13:06:54.433Z,26.00
2018-06-03T13:07:54.348Z,26.17
2018-06-03T13:08:54.269Z,25.90
2018-06-03T13:09:54.198Z,25.91
2018-06-03T13:10:54.128Z,25.94
2018-06-03T13:11:54.132Z,25.90
2018-06-03T13:12:54.047Z,26.01
2018-06-03T13:13:53.915Z,26.11
2018-06-03T13:14:53.845Z,25.89
2018-06-03T13:17:36.027Z,25.97
2018-06-03T13:18:35.946Z,25.83
2018-06-03T13:19:35.867Z,25.81
2018-06-03T13:20:35.819Z,25.93
2018-06-03T13:21:35.734Z,25.90
2018-06-03T13:22:35.686Z,26.04
2018-06-03T13:23:35.583Z,26.19
2018-06-03T13:24:35.530Z,26.36
2018-06-03T13:25:35.442Z,26.47
2018-06-03T13:28:17.533Z,26.00
2018-06-03T13:29:17.457Z,25.63
2018-06-03T13:30:17.363Z,25.89
2018-06-03T13:32:59.556Z,26.09
2018-06-03T13:33:59.491Z,25.89
2018-06-03T13:34:59.374Z,25.61
2018-06-03T13:35:59.398Z,25.71
2018-06-03T13:36:59.232Z,25.86
2018-06-03T13:37:59.233Z,26.00
2018-06-03T13:38:59.086Z,25.98
2018-06-03T13:39:59.117Z,25.90
2018-06-03T13:40:58.953Z,25.79
2018-06-03T13:41:58.931Z,25.72
2018-06-03T13:42:58.881Z,25.69
2018-06-03T13:43:58.864Z,25.41
2018-06-03T13:44:58.649Z,25.56
2018-06-03T13:47:40.513Z,25.85
2018-06-03T13:48:40.593Z,25.98
2018-06-03T13:49:40.386Z,25.91
2018-06-03T13:50:40.351Z,25.91
2018-06-03T13:51:40.240Z,26.11
2018-06-03T13:52:40.256Z,26.19
2018-06-03T13:53:40.132Z,26.12
2018-06-03T13:54:40.049Z,26.08
2018-06-03T13:55:39.948Z,26.29
2018-06-03T13:56:39.975Z,26.27
2018-06-03T13:57:39.799Z,26.28
2018-06-03T13:58:39.777Z,26.36
2018-06-03T13:59:39.690Z,26.47
2018-06-03T14:00:39.689Z,26.21
2018-06-03T14:01:39.507Z,26.38
2018-06-03T14:02:39.499Z,26.46
2018-06-03T14:03:39.374Z,26.54
2018-06-03T14:04:39.318Z,26.51
2018-06-03T14:05:39.227Z,26.65
2018-06-03T14:06:39.210Z,26.73
2018-06-03T14:07:39.078Z,27.03
2018-06-03T14:08:39.130Z,27.03
2018-06-03T14:09:38.958Z,27.05
2018-06-03T14:10:38.932Z,26.87
2018-06-03T14:11:38.789Z,26.54
2018-06-03T14:12:38.717Z,26.31
2018-06-03T14:13:38.639Z,26.19
2018-06-03T14:14:42.917Z,25.98
2018-06-03T14:15:38.502Z,25.91
2018-06-03T14:16:38.475Z,25.83
2018-06-03T14:17:38.367Z,25.94
2018-06-03T14:18:38.369Z,26.27
2018-06-03T14:19:38.235Z,26.54
2018-06-03T14:22:20.532Z,26.98
2018-06-03T14:25:02.631Z,26.39
2018-06-03T14:26:02.579Z,26.19
2018-06-03T14:27:02.395Z,26.24
2018-06-03T14:28:02.394Z,26.39
2018-06-03T14:29:02.268Z,26.49
2018-06-03T14:31:44.546Z,26.57
2018-06-03T14:32:44.511Z,26.36
2018-06-03T14:33:44.394Z,26.21
2018-06-03T14:34:45.490Z,26.28
2018-06-03T14:35:44.246Z,26.17
2018-06-03T14:36:44.232Z,26.04
2018-06-03T14:37:44.114Z,25.98
2018-06-03T14:40:26.188Z,25.89
2018-06-03T14:41:26.030Z,25.86
2018-06-03T14:42:25.907Z,25.60
2018-06-03T14:43:26.050Z,25.61
2018-06-03T14:44:25.820Z,25.63
2018-06-03T14:45:25.879Z,25.67
2018-06-03T14:46:25.631Z,25.57